This is the latest recevied weather packets stored in our database for station/object IW1QQG-13. If no packets are shown the sender has not sent any weather packets the latest 1 day(s).
| Time | Temp. | Humidity | Pressure | Rain* | Wind** | Luminosity | Snow |
|---|---|---|---|---|---|---|---|
| 1778051757 | 16.67° C | 79% | 1009.8 hPa | 0 mm | - | 139 W/m² | - |
| 1778050557 | 16.67° C | 77% | 1009.5 hPa | 0 mm | - | 328 W/m² | - |
| 1778049957 | 17.22° C | 75% | 1009.5 hPa | 0 mm | - | 291 W/m² | - |
| 1778049357 | 17.22° C | 79% | 1009.5 hPa | 0 mm | - | 260 W/m² | - |
| 1778048757 | 16.67° C | 77% | 1009.5 hPa | 0 mm | - | 236 W/m² | - |
| 1778047557 | 15.56° C | 84% | 1009.5 hPa | 0 mm | - | 183 W/m² | - |
| 1778046957 | 14.44° C | 87% | 1009.5 hPa | 0 mm | - | 156 W/m² | - |
| 1778046357 | 13.89° C | 88% | 1009.5 hPa | 0 mm | - | 128 W/m² | - |
| 1778045757 | 12.78° C | 94% | 1009.1 hPa | 0 mm | - | 47 W/m² | - |
| 1778045157 | 12.22° C | 94% | 1009.1 hPa | 0 mm | - | 40 W/m² | - |
| 1778044557 | 11.67° C | 96% | 1009.1 hPa | 0 mm | - | 36 W/m² | - |
| 1778043957 | 11.67° C | 96% | 1009.1 hPa | 0 mm | - | 28 W/m² | - |
| 1778043357 | 11.67° C | 96% | 1009.1 hPa | 0 mm | - | 22 W/m² | - |
| 1778042757 | 11.67° C | 96% | 1008.8 hPa | 0 mm | - | 20 W/m² | - |
| 1778042157 | 11.67° C | 93% | 1009.1 hPa | 0 mm | - | 8 W/m² | - |
| 1778040357 | 11.67° C | 95% | 1009.1 hPa | 0 mm | - | 1 W/m² | - |
| 1778039157 | 12.22° C | 91% | 1009.8 hPa | 0 mm | - | 0 W/m² | - |
| 1778038557 | 12.22° C | 89% | 1009.8 hPa | 0 mm | - | 0 W/m² | - |
| 1778037956 | 12.22° C | 90% | 1009.8 hPa | 0 mm | - | 0 W/m² | - |
| 1778036756 | 12.78° C | 89% | 1009.1 hPa | 0 mm | - | 0 W/m² | - |
| 1778036156 | 12.22° C | 92% | 1009.1 hPa | 0 mm | - | 0 W/m² | - |
| 1778035557 | 12.22° C | 91% | 1009.5 hPa | 0 mm | - | 0 W/m² | - |
| 1778034956 | 12.22° C | 92% | 1009.5 hPa | 0 mm | - | 0 W/m² | - |
| 1778034356 | 12.22° C | 92% | 1009.5 hPa | 0 mm | - | 0 W/m² | - |
| 1778033756 | 12.22° C | 93% | 1009.8 hPa | 0 mm | - | 0 W/m² | - |
* Rain latest hour (hover to see other rain measurements)
** Current wind speed in m/s (hover to see current wind gust speed)